La Plume, Pennsylvania
Current Conditions -  °F | °C
As of 2:54 AM on Saturday 01 Nov 2014 (Local Time) from KAVP Reporting Station
Overcast Overcast  
Wind Chill: 43°   Ceiling: 2000
Heat Index: 47°   Visibility: 10mi
Dew Point: 37°   Wind: 8mph
Humidity: 68%   Direction: 50°NE
Pressure: 29.86"   Gusts: NA
Location:  41.56°N, 75.75°W
Report Text: KAVP 010654Z AUTO 05007KT 10SM OVC020 08/03 A2986 RMK AO2 RAB07E46 SLP111 P0000 T00830028
Loading
Personal Weather Stations






























Interactive Weather Map
Tropical Storm Tracking
New forecast layout! Learn more

10-Day Weather Forecast

Advertisements
Track Severe Weather on mobile